キャンベラ の空港の天気 - METARとTAF

キャンベラ国際空港 ( YSCB / CBR ) - オーストラリア オーストラリア首都特別地域キャンベラ
飛行場実況気象(Metar)
観測時間09/26 06:30 AEST (09/25 20:30 UTC)
風向・風速南東 2m/s
視程10km以上
天気現象
なし
気温5℃
湿度100%
気圧1017hPa
METARYSCB 252030Z AUTO 13004KT 9999 // NCD 05/05 Q1017
過去の天気等 Google飛行場航空写真 Wunderground天気予報

過去48時間のMETAR

飛行場予報(TAF)
発表時間: 9/26 06:28 AEST (9/25 20:28 UTC)
予報対象時間: 26日7時 AEST ~ 27日4時 AEST
風向・風速不定 2m/s
視程10km以上
全天の4割程度の雲 雲底高度 760m
26日10時 AEST から
風向・風速北北西 5m/s
視程10km以上
全天の4割程度の雲 雲底高度 1520m
26日20時 AEST から
風向・風速北北西 3m/s
視程10km以上
全天の8割程度の雲 雲底高度 1520m
27日0時 AEST から
風向・風速不定 2m/s
視程10km以上
天気現象弱い雨
全天の8割程度の雲 雲底高度 910m
TAF AMD YSCB 252028Z 2521/2618 VRB03KT 9999 SCT025
FM260000 34010KT 9999 SCT050
FM261000 33006KT 9999 BKN050
FM261400 VRB03KT 9999 -RA BKN030